createdAt,value
2019-05-20T13:18:30.475Z,52.40
2019-05-20T13:20:58.939Z,54.20
2019-05-20T13:23:27.398Z,53.47
2019-05-20T13:25:55.982Z,51.90
2019-05-20T13:28:24.498Z,52.87
2019-05-20T13:30:52.929Z,50.63
2019-05-20T13:33:21.351Z,53.47
2019-05-20T13:35:49.828Z,51.57
2019-05-20T13:38:18.269Z,53.27
2019-05-20T13:40:47.477Z,50.97
2019-05-20T13:43:16.194Z,50.97
2019-05-20T13:45:47.976Z,50.50
2019-05-20T13:48:14.764Z,54.43
2019-05-20T13:50:43.343Z,51.83
2019-05-20T13:53:11.739Z,52.97
2019-05-20T13:55:40.219Z,54.70
2019-05-20T13:58:08.661Z,51.60
2019-05-20T14:00:37.070Z,53.57
2019-05-20T14:03:05.499Z,51.53
2019-05-20T14:05:33.906Z,52.63
2019-05-20T14:08:02.341Z,51.70
2019-05-20T14:10:30.757Z,48.87
2019-05-20T14:12:59.187Z,47.77
2019-05-20T14:15:27.671Z,48.87
2019-05-20T14:17:56.101Z,46.53
2019-05-20T14:20:24.580Z,49.37
2019-05-20T14:22:53.022Z,50.50
2019-05-20T14:25:21.515Z,50.90
2019-05-20T14:27:49.947Z,48.90
2019-05-20T14:30:18.533Z,49.20
2019-05-20T14:32:46.982Z,47.57
2019-05-20T14:35:15.565Z,49.80
2019-05-20T14:37:44.006Z,48.30
2019-05-20T14:40:12.482Z,49.83
2019-05-20T14:42:40.950Z,48.50
2019-05-20T14:45:09.604Z,47.07
2019-05-20T14:47:38.044Z,47.50
2019-05-20T14:50:08.059Z,49.50
2019-05-20T14:52:36.500Z,49.07
2019-05-20T14:55:06.047Z,49.70
2019-05-20T14:57:34.477Z,47.70
2019-05-20T15:00:03.024Z,49.10
2019-05-20T15:02:31.544Z,47.23
2019-05-20T15:04:59.957Z,48.40
2019-05-20T15:07:30.975Z,48.00
2019-05-20T15:09:58.586Z,51.37
2019-05-20T15:12:27.021Z,49.73
2019-05-20T15:14:55.504Z,54.10
2019-05-20T15:17:23.953Z,56.03
2019-05-20T15:19:52.364Z,51.00
2019-05-20T15:22:20.772Z,47.57
2019-05-20T15:24:49.216Z,49.63
2019-05-20T15:27:17.630Z,50.90
2019-05-20T15:29:46.069Z,54.43
2019-05-20T15:32:14.483Z,49.63
2019-05-20T15:34:42.937Z,50.00
2019-05-20T15:37:11.384Z,53.90
2019-05-20T15:39:39.863Z,53.50
2019-05-20T15:42:08.274Z,52.83
2019-05-20T15:44:36.718Z,54.40
2019-05-20T15:47:05.212Z,51.77
2019-05-20T15:49:33.648Z,51.97
2019-05-20T15:52:02.063Z,52.97
2019-05-20T15:54:30.511Z,50.77
2019-05-20T15:56:59.136Z,50.60
2019-05-20T15:59:43.170Z,51.77
2019-05-20T16:01:57.923Z,53.97
2019-05-20T16:04:26.376Z,50.87
2019-05-20T16:06:55.057Z,50.40
2019-05-20T16:09:23.511Z,52.77
2019-05-20T16:11:51.921Z,53.90
2019-05-20T16:14:20.368Z,55.00
2019-05-20T16:16:48.788Z,54.50
2019-05-20T16:19:17.313Z,53.70
2019-05-20T16:21:47.922Z,55.70
2019-05-20T16:24:15.890Z,55.77
2019-05-20T16:26:44.370Z,52.80
2019-05-20T16:29:12.883Z,52.93
2019-05-20T16:31:41.364Z,53.50
2019-05-20T16:34:09.810Z,57.00
2019-05-20T16:36:38.219Z,53.50
2019-05-20T16:39:07.574Z,52.53
2019-05-20T16:41:35.972Z,55.87
2019-05-20T16:44:04.378Z,55.37
2019-05-20T16:46:32.829Z,55.57
2019-05-20T16:49:01.243Z,56.10
2019-05-20T16:51:34.055Z,56.37
2019-05-20T16:54:02.526Z,53.67
2019-05-20T16:56:30.971Z,55.80
2019-05-20T16:58:59.383Z,55.07
2019-05-20T17:01:27.891Z,57.07
2019-05-20T17:03:56.304Z,55.63
2019-05-20T17:06:27.461Z,55.50
2019-05-20T17:08:54.881Z,56.37
2019-05-20T17:11:23.317Z,59.33
2019-05-20T17:13:51.732Z,55.07
2019-05-20T17:16:20.178Z,57.57
2019-05-20T17:18:48.594Z,56.83
2019-05-20T17:21:17.108Z,58.37
2019-05-20T17:23:45.529Z,60.10
2019-05-20T17:26:14.043Z,55.57
2019-05-20T17:28:42.456Z,58.03
2019-05-20T17:31:10.967Z,58.47
2019-05-20T17:33:39.381Z,57.27
2019-05-20T17:36:07.816Z,60.67
2019-05-20T17:38:36.232Z,57.50
2019-05-20T17:41:04.750Z,58.33
2019-05-20T17:43:33.169Z,59.40
2019-05-20T17:46:01.604Z,60.83
2019-05-20T17:48:30.097Z,62.43
2019-05-20T17:50:58.501Z,59.60
2019-05-20T17:53:26.943Z,62.53
2019-05-20T17:55:55.355Z,66.97
2019-05-20T17:58:23.787Z,64.00
2019-05-20T18:00:53.131Z,59.60
2019-05-20T18:03:21.813Z,62.23
2019-05-20T18:05:52.740Z,62.10
2019-05-20T18:08:21.320Z,63.50
2019-05-20T18:10:51.809Z,62.43
2019-05-20T18:13:21.542Z,63.40
2019-05-20T18:15:53.300Z,61.50
2019-05-20T18:18:22.660Z,61.07
2019-05-20T18:20:56.273Z,60.33
2019-05-20T18:23:27.641Z,61.87
2019-05-20T18:25:59.236Z,60.60
2019-05-20T18:28:29.885Z,62.00
2019-05-20T18:31:02.246Z,61.30
2019-05-20T18:33:35.819Z,63.23
2019-05-20T18:36:06.217Z,63.80
2019-05-20T18:38:38.929Z,60.67
2019-05-20T18:41:08.348Z,61.70
2019-05-20T18:43:37.950Z,61.00
2019-05-20T18:46:11.488Z,59.60
2019-05-20T18:48:51.281Z,57.20
2019-05-20T18:51:23.214Z,58.80
2019-05-20T18:54:05.358Z,57.97
2019-05-20T18:56:35.825Z,59.00
2019-05-20T18:59:07.609Z,59.47
2019-05-20T19:01:50.866Z,58.07
2019-05-20T19:04:15.254Z,59.40
2019-05-20T19:06:47.232Z,57.47
2019-05-20T19:09:19.551Z,59.57
2019-05-20T19:11:53.038Z,60.00
2019-05-20T19:14:25.103Z,60.83
2019-05-20T19:16:56.141Z,64.07
2019-05-20T19:19:29.034Z,62.00
2019-05-20T19:22:02.878Z,64.47
2019-05-20T19:24:33.328Z,64.90
2019-05-20T19:27:03.839Z,66.53
2019-05-20T19:29:35.845Z,66.40
2019-05-20T19:32:06.922Z,69.77
2019-05-20T19:34:36.939Z,71.17
2019-05-20T19:37:07.820Z,69.37
2019-05-20T19:39:37.724Z,76.53
2019-05-20T19:42:09.071Z,71.60
2019-05-20T19:44:37.499Z,71.70
2019-05-20T19:47:09.130Z,75.07
2019-05-20T19:49:42.540Z,75.47
2019-05-20T19:52:12.841Z,72.87
2019-05-20T19:54:43.335Z,71.50
2019-05-20T19:57:13.674Z,72.73
2019-05-20T19:59:46.319Z,72.10
2019-05-20T20:02:20.491Z,74.53
2019-05-20T20:04:50.394Z,74.37
2019-05-20T20:07:20.357Z,70.17
2019-05-20T20:09:51.262Z,71.70
2019-05-20T20:12:22.629Z,72.30
2019-05-20T20:14:53.017Z,70.30
2019-05-20T20:17:24.639Z,73.27
2019-05-20T20:19:59.459Z,72.87
2019-05-20T20:22:28.335Z,75.00
2019-05-20T20:24:58.891Z,77.70
2019-05-20T20:27:30.094Z,70.97
2019-05-20T20:30:00.591Z,73.23
2019-05-20T20:32:38.078Z,71.63
2019-05-20T20:35:01.930Z,78.10
2019-05-20T20:37:30.392Z,78.17
2019-05-20T20:39:59.519Z,71.57
2019-05-20T20:42:31.816Z,76.77
2019-05-20T20:45:03.703Z,75.63
2019-05-20T20:47:41.286Z,77.43
2019-05-20T20:50:05.619Z,74.47
2019-05-20T20:52:44.120Z,76.93
2019-05-20T20:55:15.013Z,77.80
2019-05-20T20:57:48.413Z,75.80
2019-05-20T21:00:17.713Z,77.23
2019-05-20T21:02:53.163Z,75.70
2019-05-20T21:05:23.743Z,79.30
2019-05-20T21:08:02.683Z,76.80
2019-05-20T21:10:32.101Z,74.17
2019-05-20T21:13:03.118Z,74.70
2019-05-20T21:15:35.612Z,72.67
2019-05-20T21:18:07.825Z,76.97
2019-05-20T21:20:38.884Z,73.13
2019-05-20T21:23:10.494Z,77.00
2019-05-20T21:25:38.897Z,77.77
2019-05-20T21:28:09.292Z,74.97
2019-05-20T21:30:42.642Z,72.70
2019-05-20T21:33:25.674Z,79.00
2019-05-20T21:35:55.721Z,77.97
2019-05-20T21:38:25.053Z,76.17
2019-05-20T21:40:55.432Z,75.17
2019-05-20T21:43:24.790Z,78.53
2019-05-20T21:45:54.403Z,84.17
2019-05-20T21:48:24.660Z,78.20
2019-05-20T21:50:54.921Z,73.57
2019-05-20T21:53:27.080Z,77.73
2019-05-20T21:55:58.344Z,79.50
2019-05-20T21:58:30.068Z,75.90
2019-05-20T22:01:00.795Z,73.50
2019-05-20T22:03:31.789Z,81.57
2019-05-20T22:06:04.967Z,80.80
2019-05-20T22:08:37.576Z,77.80
2019-05-20T22:11:05.998Z,78.10
2019-05-20T22:13:34.803Z,81.30
2019-05-20T22:16:03.264Z,77.10
2019-05-20T22:18:31.701Z,77.07
2019-05-20T22:21:00.115Z,75.87
2019-05-20T22:23:36.140Z,76.30
2019-05-20T22:26:04.724Z,84.90
2019-05-20T22:28:33.160Z,76.70
2019-05-20T22:31:01.621Z,79.60
2019-05-20T22:33:41.016Z,73.40
2019-05-20T22:36:00.240Z,80.50
2019-05-20T22:38:28.686Z,81.03
2019-05-20T22:40:57.098Z,83.13
2019-05-20T22:43:25.562Z,81.87
2019-05-20T22:45:53.972Z,80.97
2019-05-20T22:48:22.691Z,81.43
2019-05-20T22:50:51.176Z,82.70
2019-05-20T22:53:19.595Z,87.20
2019-05-20T22:55:48.036Z,82.90
2019-05-20T22:58:16.515Z,85.57
2019-05-20T23:00:44.957Z,81.30
2019-05-20T23:03:13.378Z,85.87
2019-05-20T23:05:41.816Z,82.03
2019-05-20T23:08:10.228Z,84.13
2019-05-20T23:10:38.672Z,82.27
2019-05-20T23:13:07.082Z,91.20
2019-05-20T23:15:35.524Z,85.87
2019-05-20T23:18:04.012Z,85.33
2019-05-20T23:20:32.457Z,82.17
2019-05-20T23:23:00.878Z,84.83
2019-05-20T23:25:29.329Z,82.30
2019-05-20T23:27:57.738Z,84.77
2019-05-20T23:30:26.178Z,84.23
2019-05-20T23:32:54.598Z,86.33
2019-05-20T23:35:23.028Z,82.20
2019-05-20T23:37:51.558Z,82.10
2019-05-20T23:40:19.975Z,82.07
2019-05-20T23:42:48.386Z,83.07
2019-05-20T23:45:16.904Z,84.63
2019-05-20T23:47:45.321Z,92.40
2019-05-20T23:50:14.053Z,81.07
2019-05-20T23:52:42.542Z,84.27
2019-05-20T23:55:11.086Z,83.20
2019-05-20T23:57:39.536Z,85.13
